Little Rock, AR

07:43 CDT le 28 août 2015 (GMT -0500)
Democrat-Gazette Downtown | | Change Station
CLOSE
Current Station
Stations météorologiques personnelles
Location: Little Rock, AR
Altitude: 371 ft
Stations météo à proximité

Alt. 371 ft 34.74 °N, 92.27 °W | Updated 45 seconds ago

Scattered Clouds
Nuages épars
68.4 ° F
Paraît 68.4 ° F
N
0.0
Vent Variable Vent de NE
Gusts 0.0 mph

Aujourd'hui
Haut(e) -- | Bas -- ° F
--% Risque de précip.
Hier
Haut(e) -- | Bas -- ° F
Precip. -- pouce
6:38 AM 7:41 PM
Lune gibbeuse croissante, 98% visible
Pression 30.06 pouce
Visibilité 10.0 Miles terrestres
Nuages Peu 15000 ft
Nuages épars 25000 ft
Point de rosée 62 ° F
Humidité 80%
Précipitations 0.00 pouce
Profondeur de la couche neigeuse Non disponible.
UV 1.0 sur 12
Pollen 8.70 sur 12
Qualité de l'air Non disponible.
Flu Activity Non disponible.
METAR KLIT 281153Z 06003KT 10SM FEW150 SCT250 17/16 A3006 RMK AO2 SLP180 T01720156 10194 20161 51006 $
Pression 30.06 pouce
Visibilité 10.0 Miles terrestres
Nuages Peu 15000 ft
Nuages épars 25000 ft
Point de rosée 62 ° F
Humidité 80%
Précipitations 0.00 pouce
Profondeur de la couche neigeuse Non disponible.
UV 1.0 sur 12
Pollen 8.70 sur 12
Qualité de l'air Non disponible.
Flu Activity Non disponible.
METAR KLIT 281153Z 06003KT 10SM FEW150 SCT250 17/16 A3006 RMK AO2 SLP180 T01720156 10194 20161 51006 $

10-Day Weather Forecast

×

Almanac

Astronomie

Aug. 28, 2015 Lever Coucher
Temps réel
Crépuscule civil
Crépuscule nautique
Crépuscule astronomique
Lune
Durée de lumière visible
Longueur du jour
Tomorrow will be .
, % of the Moon is Illuminated

Extrêmes aujourd'hui

State Highs State Lows

Community

WunderPhotos

Upload Photos

1,850,373 Photos téléchargées !

WunderBlogs® & News

Nearby

Qualité de l'air

  Qualité de l'air Indice de la qualité de l'air Polluant
Not available.

Épaisseur de neige

Station Depth Altitude

Activité sismique

Ville Distance Mag. Time & Date
Minimum magnitude displayed is 2.5.

Températures des eaux côtières

Lieu Température

Stations

Stations météo à proximité

Emplacement de la station Température Refroidissement éolien Point de rosée Humidité Vent Precip. Alt. Mise à jour Type